SAME/MDZ METAR and TAF weather

Enter ICAO airport designator
Station Type Date Time Source
SAME METAR 2019/08/22 04:00 UTC NOAA

SAME 220400Z 00000KT CAVOK 10/03 Q1024


Station Type Date Time Source
SAME Decoded METAR 2019/08/22 04:00 UTC NOAA

Station name not available
Aug 22, 2019 - 12:00 AM EDT / 2019.08.22 0400 UTC
Wind: Calm:0
Visibility: greater than 7 mile(s):0
Temperature: 50 F (10 C)
Dew Point: 37 F (3 C)
Relative Humidity: 61%
Pressure (altimeter): 30.24 in. Hg (1024 hPa)
ob: SAME 220400Z 00000KT CAVOK 10/03 Q1024
cycle: 4

Station Type Date Time Source
SAME TAF 2019/08/22 00:00 UTC NOAA

TAF SAME 212300Z 2200/2224 14005KT 9999 FEW040 TX19/2219Z TN03/2110Z

Example: see airport list